Time;durP1;ratioP1;P1;durP2;ratioP2;P2;SDS_P1;SDS_P2;PMS_P1;PMS_P2;Temp;Humidity;BMP_temperature;BMP_pressure;BME280_temperature;BME280_humidity;BME280_pressure;Samples;Min_cycle;Max_cycle;Signal;HPM_P1;HPM_P2
2024/03/22 00:03:11;;;;;;;8.30;5.00;;;;;;;;;;103886;1292;545751;-73
2024/03/22 00:07:05;;;;;;;7.80;4.20;;;;;;;;;;103572;1291;548219;-76
2024/03/22 00:10:36;;;;;;;8.00;4.70;;;;;;;;;;103775;1292;544984;-72
2024/03/22 00:14:03;;;;;;;7.70;4.20;;;;;;;;;;103749;1289;545446;-72
2024/03/22 00:17:42;;;;;;;8.70;5.00;;;;;;;;;;103756;1288;544806;-72
2024/03/22 00:21:19;;;;;;;7.50;4.40;;;;;;;;;;103739;1301;546008;-72
2024/03/22 00:25:16;;;;;;;9.10;5.00;;;;;;;;;;104104;1286;545227;-71
2024/03/22 00:28:39;;;;;;;8.70;4.90;;;;;;;;;;103933;1288;548017;-73
2024/03/22 00:32:11;;;;;;;8.80;5.30;;;;;;;;;;103738;1290;544969;-73
2024/03/22 00:35:49;;;;;;;8.80;5.00;;;;;;;;;;103752;1291;545265;-72
2024/03/22 00:39:26;;;;;;;8.00;4.60;;;;;;;;;;103924;1289;546318;-72
2024/03/22 00:43:07;;;;;;;9.30;4.90;;;;;;;;;;103698;1289;544965;-72
2024/03/22 00:46:40;;;;;;;9.00;5.00;;;;;;;;;;104032;1289;545587;-72
2024/03/22 00:50:18;;;;;;;8.90;4.90;;;;;;;;;;103835;1289;544856;-72
2024/03/22 00:53:56;;;;;;;8.70;5.00;;;;;;;;;;103788;1295;545016;-72
2024/03/22 00:57:33;;;;;;;9.00;4.90;;;;;;;;;;103702;1291;545334;-72
2024/03/22 01:01:11;;;;;;;8.80;5.20;;;;;;;;;;103604;1292;544958;-73
2024/03/22 01:04:48;;;;;;;7.80;4.50;;;;;;;;;;103808;1299;545676;-72
2024/03/22 01:08:26;;;;;;;8.40;4.70;;;;;;;;;;103677;1292;544809;-74
2024/03/22 01:12:06;;;;;;;9.10;5.30;;;;;;;;;;103754;1292;545771;-72
2024/03/22 01:15:43;;;;;;;9.40;5.50;;;;;;;;;;103725;1291;545732;-72
2024/03/22 01:19:28;;;;;;;;;;;;;;;;;;;;;
2024/03/22 01:23:07;;;;;;;9.20;5.50;;;;;;;;;;103729;1291;544981;-72
2024/03/22 01:26:33;;;;;;;10.10;5.30;;;;;;;;;;104596;1283;544815;-71
2024/03/22 01:30:21;;;;;;;8.40;5.00;;;;;;;;;;103789;1289;544995;-72
2024/03/22 01:33:48;;;;;;;8.60;5.00;;;;;;;;;;103492;1295;545548;-72
2024/03/22 01:37:31;;;;;;;9.10;5.60;;;;;;;;;;103701;1295;547788;-72
2024/03/22 01:41:03;;;;;;;9.90;5.60;;;;;;;;;;103822;1289;544905;-73
2024/03/22 01:44:41;;;;;;;9.70;6.00;;;;;;;;;;103871;1288;544754;-72
2024/03/22 01:48:18;;;;;;;9.70;6.10;;;;;;;;;;103799;1292;544886;-73
2024/03/22 01:52:15;;;;;;;9.80;6.10;;;;;;;;;;103731;1289;547969;-73
2024/03/22 01:55:33;;;;;;;10.60;6.90;;;;;;;;;;103905;1290;545809;-72
2024/03/22 01:59:10;;;;;;;12.10;7.40;;;;;;;;;;103882;1288;544832;-73
2024/03/22 02:02:48;;;;;;;11.30;7.10;;;;;;;;;;103716;1291;545021;-72
2024/03/22 02:06:25;;;;;;;10.80;7.00;;;;;;;;;;103950;1287;544884;-72
2024/03/22 02:09:59;;;;;;;11.20;6.80;;;;;;;;;;103723;1293;544993;-73
2024/03/22 02:13:40;;;;;;;11.70;6.90;;;;;;;;;;104031;1286;545930;-71
2024/03/22 02:17:14;;;;;;;12.60;8.00;;;;;;;;;;103690;1291;545429;-72
2024/03/22 02:21:10;;;;;;;11.50;7.70;;;;;;;;;;103672;1289;548339;-72
2024/03/22 02:24:33;;;;;;;11.40;7.60;;;;;;;;;;103723;1292;545565;-74
2024/03/22 02:28:10;;;;;;;12.10;7.70;;;;;;;;;;103754;1296;545327;-71
2024/03/22 02:31:48;;;;;;;12.70;8.30;;;;;;;;;;104193;1286;545537;-71
2024/03/22 02:35:25;;;;;;;11.40;7.50;;;;;;;;;;103847;1289;545545;-73
2024/03/22 02:39:04;;;;;;;12.40;8.10;;;;;;;;;;103713;1291;544805;-72
2024/03/22 02:42:40;;;;;;;12.70;8.40;;;;;;;;;;103774;1289;544987;-73
2024/03/22 02:46:18;;;;;;;12.70;8.10;;;;;;;;;;103746;1289;546671;-72
2024/03/22 02:49:55;;;;;;;13.50;8.30;;;;;;;;;;103804;1292;544960;-72
2024/03/22 02:53:33;;;;;;;12.90;8.30;;;;;;;;;;103533;1292;546732;-72
2024/03/22 02:57:10;;;;;;;13.40;8.30;;;;;;;;;;103553;1292;545362;-72
2024/03/22 03:00:48;;;;;;;13.10;8.20;;;;;;;;;;103849;1290;544609;-72
2024/03/22 03:04:24;;;;;;;13.20;9.10;;;;;;;;;;104309;1287;544989;-72
2024/03/22 03:07:59;;;;;;;13.40;9.20;;;;;;;;;;103893;1289;545453;-73
2024/03/22 03:11:53;;;;;;;13.00;8.90;;;;;;;;;;104206;1295;546324;-73
2024/03/22 03:15:17;;;;;;;13.50;9.00;;;;;;;;;;103971;1292;545609;-72
2024/03/22 03:18:58;;;;;;;12.80;9.00;;;;;;;;;;103745;1289;544766;-72
2024/03/22 03:22:33;;;;;;;13.50;9.30;;;;;;;;;;103774;1292;545930;-71
2024/03/22 03:26:10;;;;;;;14.20;9.40;;;;;;;;;;103948;1289;545800;-72
2024/03/22 03:29:47;;;;;;;13.50;9.10;;;;;;;;;;103752;1289;544814;-72
2024/03/22 03:33:25;;;;;;;14.70;9.70;;;;;;;;;;103880;1295;545068;-72
2024/03/22 03:37:01;;;;;;;14.00;9.40;;;;;;;;;;103523;1295;545625;-72
2024/03/22 03:40:40;;;;;;;17.00;9.70;;;;;;;;;;103736;1291;544808;-72
2024/03/22 03:44:17;;;;;;;14.20;9.70;;;;;;;;;;104314;1285;545051;-73
2024/03/22 03:47:55;;;;;;;13.80;9.40;;;;;;;;;;103793;1291;544872;-72
2024/03/22 03:51:32;;;;;;;14.10;9.20;;;;;;;;;;103684;1295;544961;-71
2024/03/22 03:55:10;;;;;;;14.30;8.90;;;;;;;;;;103699;1292;544846;-72
2024/03/22 03:58:47;;;;;;;13.50;9.30;;;;;;;;;;103828;1288;545006;-72
2024/03/22 04:02:25;;;;;;;14.50;9.40;;;;;;;;;;104756;1280;544728;-73
2024/03/22 04:05:58;;;;;;;14.50;9.70;;;;;;;;;;104521;1282;544930;-71
2024/03/22 04:09:40;;;;;;;13.40;9.20;;;;;;;;;;103812;1289;544848;-72
2024/03/22 04:13:17;;;;;;;13.60;8.60;;;;;;;;;;103935;1298;544952;-72
2024/03/22 04:17:00;;;;;;;15.00;9.10;;;;;;;;;;103836;1290;546528;-73
2024/03/22 04:20:28;;;;;;;14.80;9.30;;;;;;;;;;103576;1295;544868;-72
2024/03/22 04:24:09;;;;;;;13.80;9.00;;;;;;;;;;103828;1290;545482;-72
2024/03/22 04:27:48;;;;;;;12.50;8.20;;;;;;;;;;103899;1290;544829;-73
2024/03/22 04:31:34;;;;;;;12.70;8.30;;;;;;;;;;103830;1289;544726;-73
2024/03/22 04:35:03;;;;;;;11.60;7.70;;;;;;;;;;103861;1289;545560;-72
2024/03/22 04:38:40;;;;;;;10.70;7.30;;;;;;;;;;103800;1291;545036;-72
2024/03/22 04:42:17;;;;;;;11.20;7.30;;;;;;;;;;103856;1291;545623;-72
2024/03/22 04:45:55;;;;;;;12.20;7.40;;;;;;;;;;103788;1291;545725;-72
2024/03/22 04:49:29;;;;;;;12.90;7.20;;;;;;;;;;103801;1292;544842;-72
2024/03/22 04:53:09;;;;;;;11.60;7.60;;;;;;;;;;103726;1291;545141;-71
2024/03/22 04:56:47;;;;;;;12.20;7.40;;;;;;;;;;103812;1296;545066;-72
2024/03/22 05:00:25;;;;;;;12.10;7.00;;;;;;;;;;103788;1293;544710;-72
2024/03/22 05:04:14;;;;;;;11.10;7.30;;;;;;;;;;103921;1288;544839;-73
2024/03/22 05:07:40;;;;;;;11.30;7.40;;;;;;;;;;103742;1291;544657;-72
2024/03/22 05:11:17;;;;;;;11.50;6.80;;;;;;;;;;103794;1291;544716;-72
2024/03/22 05:14:57;;;;;;;11.30;7.30;;;;;;;;;;103691;1291;545517;-71
2024/03/22 05:18:35;;;;;;;12.10;7.80;;;;;;;;;;103553;1298;545473;-72
2024/03/22 05:22:10;;;;;;;11.80;7.50;;;;;;;;;;103735;1292;544864;-72
2024/03/22 05:25:47;;;;;;;11.30;7.20;;;;;;;;;;103738;1290;544724;-71
2024/03/22 05:29:24;;;;;;;13.00;7.70;;;;;;;;;;103669;1292;545744;-72
2024/03/22 05:33:02;;;;;;;13.50;8.10;;;;;;;;;;103821;1301;545010;-71
2024/03/22 05:36:39;;;;;;;13.00;7.70;;;;;;;;;;103824;1289;545937;-72
2024/03/22 05:40:16;;;;;;;14.00;8.40;;;;;;;;;;103603;1295;545477;-72
2024/03/22 05:43:54;;;;;;;15.00;8.70;;;;;;;;;;103757;1291;545242;-73
2024/03/22 05:47:33;;;;;;;13.90;8.80;;;;;;;;;;103617;1292;544846;-72
2024/03/22 05:51:15;;;;;;;19.40;11.40;;;;;;;;;;103816;1291;544999;-71
2024/03/22 05:55:08;;;;;;;14.50;9.00;;;;;;;;;;103531;1298;545016;-72
2024/03/22 05:58:24;;;;;;;13.50;8.70;;;;;;;;;;103679;1292;545701;-71
2024/03/22 06:02:02;;;;;;;14.50;8.60;;;;;;;;;;103725;1292;544932;-73
2024/03/22 06:05:40;;;;;;;12.60;8.10;;;;;;;;;;103665;1292;545489;-72
2024/03/22 06:09:23;;;;;;;15.60;9.50;;;;;;;;;;103670;1292;545681;-73
2024/03/22 06:12:57;;;;;;;16.40;9.30;;;;;;;;;;103646;1292;546511;-72
2024/03/22 06:16:31;;;;;;;16.40;9.40;;;;;;;;;;103716;1290;545070;-73
2024/03/22 06:20:11;;;;;;;17.10;10.20;;;;;;;;;;103737;1292;545599;-71
2024/03/22 06:23:50;;;;;;;16.30;10.00;;;;;;;;;;103794;1289;545033;-71
2024/03/22 06:27:30;;;;;;;14.50;9.30;;;;;;;;;;103894;1288;547975;-72
2024/03/22 06:31:08;;;;;;;15.30;9.20;;;;;;;;;;103710;1292;548375;-74
2024/03/22 06:34:35;;;;;;;15.90;9.30;;;;;;;;;;103869;1295;544915;-72
2024/03/22 06:38:16;;;;;;;17.20;9.70;;;;;;;;;;103775;1290;544735;-72
2024/03/22 06:41:54;;;;;;;14.80;9.40;;;;;;;;;;103714;1292;545462;-73
2024/03/22 06:45:32;;;;;;;15.50;9.30;;;;;;;;;;103792;1291;545912;-72
2024/03/22 06:49:10;;;;;;;18.10;9.70;;;;;;;;;;103799;1290;545423;-73
2024/03/22 06:52:47;;;;;;;15.70;9.10;;;;;;;;;;103880;1288;545946;-72
2024/03/22 06:56:25;;;;;;;17.20;9.90;;;;;;;;;;103806;1292;545212;-72
2024/03/22 07:00:03;;;;;;;14.20;9.00;;;;;;;;;;103992;1292;544876;-73
2024/03/22 07:03:39;;;;;;;18.30;9.80;;;;;;;;;;103858;1289;544964;-72
2024/03/22 07:07:17;;;;;;;15.10;9.90;;;;;;;;;;103844;1290;545618;-72
2024/03/22 07:10:54;;;;;;;16.30;10.00;;;;;;;;;;103794;1290;545051;-73
2024/03/22 07:14:32;;;;;;;16.90;9.60;;;;;;;;;;103676;1295;545467;-73
2024/03/22 07:18:09;;;;;;;16.60;10.00;;;;;;;;;;103716;1292;545450;-74
2024/03/22 07:21:47;;;;;;;16.10;10.00;;;;;;;;;;103762;1292;544853;-73
2024/03/22 07:25:24;;;;;;;16.40;10.10;;;;;;;;;;104594;1283;545424;-73
2024/03/22 07:29:02;;;;;;;17.90;9.90;;;;;;;;;;103685;1296;544907;-70
2024/03/22 07:32:39;;;;;;;18.80;11.20;;;;;;;;;;103972;1288;545861;-72
2024/03/22 07:36:17;;;;;;;17.90;11.20;;;;;;;;;;103739;1291;545403;-71
2024/03/22 07:39:54;;;;;;;19.60;11.70;;;;;;;;;;103775;1289;545430;-72
2024/03/22 07:43:31;;;;;;;17.10;11.40;;;;;;;;;;103943;1292;544729;-74
2024/03/22 07:47:14;;;;;;;16.80;11.00;;;;;;;;;;103589;1290;548402;-72
2024/03/22 07:50:46;;;;;;;23.80;11.70;;;;;;;;;;103827;1289;545415;-72
2024/03/22 07:54:20;;;;;;;19.90;12.20;;;;;;;;;;103845;1289;546602;-73
2024/03/22 07:58:01;;;;;;;18.30;12.10;;;;;;;;;;103914;1294;545347;-72
2024/03/22 08:01:39;;;;;;;18.20;11.50;;;;;;;;;;103965;1289;544710;-73
2024/03/22 08:05:16;;;;;;;22.40;12.80;;;;;;;;;;103770;1292;544796;-73
2024/03/22 08:08:54;;;;;;;22.80;12.30;;;;;;;;;;103711;1292;544849;-73
2024/03/22 08:12:31;;;;;;;19.30;12.10;;;;;;;;;;104048;1286;544794;-74
2024/03/22 08:16:08;;;;;;;18.60;11.80;;;;;;;;;;103774;1291;545384;-76
2024/03/22 08:19:46;;;;;;;17.60;11.50;;;;;;;;;;103742;1291;545172;-73
2024/03/22 08:23:24;;;;;;;20.40;12.60;;;;;;;;;;103698;1293;546715;-75
2024/03/22 08:27:01;;;;;;;26.00;14.30;;;;;;;;;;103842;1297;545061;-74
2024/03/22 08:30:39;;;;;;;17.20;11.00;;;;;;;;;;103924;1289;545476;-71
2024/03/22 08:34:17;;;;;;;16.20;12.20;;;;;;;;;;103866;1289;545731;-73
2024/03/22 08:37:53;;;;;;;18.40;12.00;;;;;;;;;;103815;1289;544994;-74
2024/03/22 08:41:32;;;;;;;17.10;11.40;;;;;;;;;;103817;1289;544756;-72
2024/03/22 08:45:09;;;;;;;15.40;10.40;;;;;;;;;;104155;1289;544962;-75
2024/03/22 08:48:46;;;;;;;15.00;10.10;;;;;;;;;;103860;1292;545304;-74
2024/03/22 08:52:24;;;;;;;13.70;9.10;;;;;;;;;;103832;1289;545062;-72
2024/03/22 08:55:58;;;;;;;14.30;9.30;;;;;;;;;;103876;1289;546376;-73
2024/03/22 08:59:39;;;;;;;13.50;8.70;;;;;;;;;;103856;1289;545780;-73
2024/03/22 09:03:22;;;;;;;13.60;9.40;;;;;;;;;;103527;1296;548051;-74
2024/03/22 09:06:53;;;;;;;14.90;9.80;;;;;;;;;;103878;1291;547009;-74
2024/03/22 09:10:31;;;;;;;13.80;8.90;;;;;;;;;;103713;1292;544864;-73
2024/03/22 09:14:08;;;;;;;14.00;9.20;;;;;;;;;;103814;1289;546304;-73
2024/03/22 09:17:46;;;;;;;14.40;9.10;;;;;;;;;;103837;1289;545464;-74
2024/03/22 09:21:24;;;;;;;12.70;9.00;;;;;;;;;;103838;1291;544978;-73
2024/03/22 09:25:01;;;;;;;14.00;9.30;;;;;;;;;;103761;1291;545909;-72
2024/03/22 09:28:38;;;;;;;18.70;11.60;;;;;;;;;;103704;1290;545006;-73
2024/03/22 09:32:16;;;;;;;13.30;8.90;;;;;;;;;;103749;1292;545483;-73
2024/03/22 09:35:53;;;;;;;15.20;9.00;;;;;;;;;;103894;1289;544837;-73
2024/03/22 09:39:32;;;;;;;13.50;8.50;;;;;;;;;;103929;1290;544613;-75
2024/03/22 09:43:09;;;;;;;13.90;8.80;;;;;;;;;;103761;1290;545252;-73
2024/03/22 09:46:46;;;;;;;15.20;8.00;;;;;;;;;;103830;1289;544915;-73
2024/03/22 09:50:23;;;;;;;14.50;7.80;;;;;;;;;;103855;1289;544941;-72
2024/03/22 09:54:01;;;;;;;20.00;7.20;;;;;;;;;;103827;1292;545752;-73
2024/03/22 09:57:39;;;;;;;12.30;5.70;;;;;;;;;;103756;1288;544997;-71
2024/03/22 10:01:16;;;;;;;10.10;5.30;;;;;;;;;;103822;1289;544962;-73
2024/03/22 10:04:58;;;;;;;9.00;5.40;;;;;;;;;;103787;1288;548180;-74
2024/03/22 10:08:30;;;;;;;8.90;4.70;;;;;;;;;;103834;1289;545023;-71
2024/03/22 10:12:04;;;;;;;9.90;5.40;;;;;;;;;;103905;1289;545151;-73
2024/03/22 10:15:46;;;;;;;10.60;4.80;;;;;;;;;;103753;1292;544771;-73
2024/03/22 10:19:23;;;;;;;8.10;4.30;;;;;;;;;;103865;1292;545421;-74
2024/03/22 10:23:00;;;;;;;10.40;4.70;;;;;;;;;;103841;1292;545302;-72
2024/03/22 10:26:38;;;;;;;10.00;4.30;;;;;;;;;;103832;1291;545092;-73
2024/03/22 10:30:18;;;;;;;9.40;4.10;;;;;;;;;;103791;1295;544754;-73
2024/03/22 10:33:55;;;;;;;12.70;5.20;;;;;;;;;;103784;1289;545214;-72
2024/03/22 10:37:36;;;;;;;10.00;4.80;;;;;;;;;;103598;1295;547950;-72
2024/03/22 10:41:07;;;;;;;9.10;4.60;;;;;;;;;;104571;1285;544755;-73
2024/03/22 10:44:46;;;;;;;9.80;4.70;;;;;;;;;;103552;1292;545044;-73
2024/03/22 10:48:24;;;;;;;7.90;4.00;;;;;;;;;;103814;1289;544762;-75
2024/03/22 10:52:02;;;;;;;7.30;3.80;;;;;;;;;;103757;1291;545250;-72
2024/03/22 10:55:35;;;;;;;9.80;4.70;;;;;;;;;;104083;1286;545705;-73
2024/03/22 10:59:19;;;;;;;9.60;4.50;;;;;;;;;;103813;1292;545232;-72
2024/03/22 11:02:53;;;;;;;8.00;3.60;;;;;;;;;;103629;1294;544822;-72
2024/03/22 11:06:31;;;;;;;7.50;3.00;;;;;;;;;;103867;1290;545639;-74
2024/03/22 11:10:08;;;;;;;7.20;3.40;;;;;;;;;;103589;1292;544823;-73
2024/03/22 11:13:46;;;;;;;6.50;2.90;;;;;;;;;;104190;1286;544958;-73
2024/03/22 11:17:24;;;;;;;9.10;3.90;;;;;;;;;;103741;1292;544781;-72
2024/03/22 11:21:00;;;;;;;8.20;3.80;;;;;;;;;;103836;1289;545425;-73
2024/03/22 11:24:37;;;;;;;9.60;4.00;;;;;;;;;;103546;1295;544974;-73
2024/03/22 11:28:16;;;;;;;6.20;3.10;;;;;;;;;;103829;1292;545332;-73
2024/03/22 11:31:53;;;;;;;8.50;4.00;;;;;;;;;;103751;1292;544940;-75
2024/03/22 11:35:31;;;;;;;11.70;5.40;;;;;;;;;;104275;1285;544977;-72
2024/03/22 11:39:07;;;;;;;8.30;4.20;;;;;;;;;;103697;1291;544798;-74
2024/03/22 11:42:47;;;;;;;11.00;5.20;;;;;;;;;;103772;1292;545423;-72
2024/03/22 11:46:22;;;;;;;13.10;5.60;;;;;;;;;;104006;1289;545848;-74
2024/03/22 11:50:00;;;;;;;12.80;5.80;;;;;;;;;;103853;1292;544741;-75
2024/03/22 11:53:37;;;;;;;8.30;4.70;;;;;;;;;;103811;1289;544787;-75
2024/03/22 11:57:11;;;;;;;12.40;5.40;;;;;;;;;;103578;1292;545492;-72
2024/03/22 12:00:58;;;;;;;16.90;6.30;;;;;;;;;;103723;1288;548166;-74
2024/03/22 12:04:30;;;;;;;10.80;5.60;;;;;;;;;;103699;1292;544768;-75
2024/03/22 12:08:07;;;;;;;12.20;5.10;;;;;;;;;;103879;1289;545106;-71
2024/03/22 12:11:44;;;;;;;10.70;6.70;;;;;;;;;;103623;1293;545490;-72
2024/03/22 12:15:18;;;;;;;12.00;7.10;;;;;;;;;;103934;1289;544811;-73
2024/03/22 12:19:00;;;;;;;14.80;6.40;;;;;;;;;;103836;1289;545978;-74
2024/03/22 12:22:37;;;;;;;12.80;6.30;;;;;;;;;;104546;1283;545728;-75
2024/03/22 12:26:21;;;;;;;9.70;6.00;;;;;;;;;;103698;1292;548167;-74
2024/03/22 12:29:52;;;;;;;9.40;5.50;;;;;;;;;;103725;1290;545642;-74
2024/03/22 12:33:30;;;;;;;12.30;6.60;;;;;;;;;;103636;1294;546032;-73
2024/03/22 12:37:07;;;;;;;29.30;9.50;;;;;;;;;;104248;1286;544965;-72
2024/03/22 12:40:45;;;;;;;15.20;9.10;;;;;;;;;;103753;1290;544971;-71
2024/03/22 12:44:22;;;;;;;14.50;8.80;;;;;;;;;;103866;1289;544681;-72
2024/03/22 12:48:00;;;;;;;23.90;9.90;;;;;;;;;;103735;1291;544711;-73
2024/03/22 12:51:43;;;;;;;15.60;9.80;;;;;;;;;;103726;1292;549279;-74
2024/03/22 12:55:15;;;;;;;21.30;10.00;;;;;;;;;;103877;1289;545992;-70
2024/03/22 12:58:52;;;;;;;16.10;10.20;;;;;;;;;;104002;1292;545049;-71
2024/03/22 13:02:32;;;;;;;15.70;10.10;;;;;;;;;;103893;1288;544981;-70
2024/03/22 13:06:07;;;;;;;16.40;11.60;;;;;;;;;;103650;1295;546035;-69
2024/03/22 13:09:45;;;;;;;20.30;12.60;;;;;;;;;;103647;1292;545311;-71
2024/03/22 13:13:19;;;;;;;17.20;12.60;;;;;;;;;;104067;1288;545311;-74
2024/03/22 13:17:00;;;;;;;17.30;11.80;;;;;;;;;;103909;1288;545249;-69
2024/03/22 13:20:37;;;;;;;18.00;11.90;;;;;;;;;;103836;1292;544975;-72
2024/03/22 13:24:15;;;;;;;15.70;11.80;;;;;;;;;;103840;1289;546048;-74
2024/03/22 13:27:52;;;;;;;16.80;12.30;;;;;;;;;;103647;1291;545977;-74
2024/03/22 13:31:29;;;;;;;41.60;12.90;;;;;;;;;;103847;1289;544955;-72
2024/03/22 13:35:07;;;;;;;18.30;11.40;;;;;;;;;;103708;1289;545970;-73
2024/03/22 13:38:44;;;;;;;15.50;10.30;;;;;;;;;;103715;1292;545051;-75
2024/03/22 13:42:22;;;;;;;15.20;9.80;;;;;;;;;;103742;1292;544849;-73
2024/03/22 13:46:01;;;;;;;26.10;12.40;;;;;;;;;;103832;1289;545693;-75
2024/03/22 13:49:40;;;;;;;16.40;10.20;;;;;;;;;;104561;1285;544780;-72
2024/03/22 13:53:15;;;;;;;23.60;12.40;;;;;;;;;;103683;1292;544845;-70
2024/03/22 13:56:51;;;;;;;16.40;11.50;;;;;;;;;;103844;1296;544937;-74
2024/03/22 14:00:29;;;;;;;15.70;10.60;;;;;;;;;;104132;1288;546396;-74
2024/03/22 14:04:13;;;;;;;17.90;11.40;;;;;;;;;;103620;1295;547977;-72
2024/03/22 14:07:45;;;;;;;17.70;12.70;;;;;;;;;;103547;1292;545281;-73
2024/03/22 14:11:22;;;;;;;17.10;10.70;;;;;;;;;;103778;1292;545740;-70
2024/03/22 14:14:59;;;;;;;17.10;11.30;;;;;;;;;;104145;1286;544774;-74
2024/03/22 14:18:37;;;;;;;16.10;10.50;;;;;;;;;;103727;1291;544632;-71
2024/03/22 14:22:15;;;;;;;14.80;9.70;;;;;;;;;;103940;1288;545746;-71
2024/03/22 14:25:52;;;;;;;17.00;10.70;;;;;;;;;;103839;1304;545003;-72
2024/03/22 14:29:25;;;;;;;17.30;9.80;;;;;;;;;;103794;1289;545641;-70
2024/03/22 14:33:06;;;;;;;14.90;10.40;;;;;;;;;;103874;1289;544998;-70
2024/03/22 14:36:44;;;;;;;15.20;10.20;;;;;;;;;;103768;1289;545024;-75
2024/03/22 14:40:22;;;;;;;13.40;9.20;;;;;;;;;;103737;1289;545638;-71
2024/03/22 14:44:01;;;;;;;14.10;9.40;;;;;;;;;;103663;1291;545259;-69
2024/03/22 14:47:37;;;;;;;15.30;9.80;;;;;;;;;;103880;1295;544926;-72
2024/03/22 14:51:14;;;;;;;14.30;9.80;;;;;;;;;;103961;1302;544879;-71
2024/03/22 14:55:28;;;;;;;14.20;8.60;;;;;;;;;;103984;1289;545313;-71
2024/03/22 14:58:29;;;;;;;13.50;8.40;;;;;;;;;;105875;1289;546001;-72
2024/03/22 15:02:03;;;;;;;15.90;9.70;;;;;;;;;;104593;1289;544708;-72
2024/03/22 15:05:41;;;;;;;15.70;11.80;;;;;;;;;;103827;1292;545303;-71
2024/03/22 15:09:22;;;;;;;16.70;10.20;;;;;;;;;;103723;1292;545187;-70
2024/03/22 15:12:59;;;;;;;19.00;12.20;;;;;;;;;;103681;1291;545042;-71
2024/03/22 15:16:37;;;;;;;15.20;9.40;;;;;;;;;;103863;1289;545871;-69
2024/03/22 15:20:15;;;;;;;16.40;9.80;;;;;;;;;;103641;1291;545222;-68
2024/03/22 15:23:52;;;;;;;15.80;9.30;;;;;;;;;;103787;1295;544934;-71
2024/03/22 15:27:29;;;;;;;17.50;9.60;;;;;;;;;;103683;1291;545632;-70
2024/03/22 15:31:03;;;;;;;16.60;10.60;;;;;;;;;;104069;1297;545492;-69
2024/03/22 15:34:44;;;;;;;17.40;10.90;;;;;;;;;;103829;1291;545012;-69
2024/03/22 15:38:21;;;;;;;18.00;10.50;;;;;;;;;;104099;1286;544828;-71
2024/03/22 15:41:59;;;;;;;18.20;10.40;;;;;;;;;;103454;1291;546425;-69
2024/03/22 15:45:38;;;;;;;19.10;10.50;;;;;;;;;;103982;1289;544885;-70
2024/03/22 15:49:14;;;;;;;19.10;10.30;;;;;;;;;;103810;1289;545117;-70
2024/03/22 15:52:57;;;;;;;15.90;8.70;;;;;;;;;;103692;1295;547858;-72
2024/03/22 15:56:29;;;;;;;15.80;8.00;;;;;;;;;;103831;1289;544755;-72
2024/03/22 16:00:07;;;;;;;16.70;8.40;;;;;;;;;;103969;1289;545192;-71
2024/03/22 16:03:44;;;;;;;17.40;9.90;;;;;;;;;;103764;1289;545715;-70
2024/03/22 16:07:21;;;;;;;17.80;9.70;;;;;;;;;;104219;1285;545055;-71
2024/03/22 16:10:58;;;;;;;17.80;9.30;;;;;;;;;;103843;1290;544792;-72
2024/03/22 16:14:38;;;;;;;16.70;8.20;;;;;;;;;;103779;1292;545471;-70
2024/03/22 16:18:15;;;;;;;13.90;7.00;;;;;;;;;;103730;1294;545159;-73
2024/03/22 16:21:51;;;;;;;15.20;7.30;;;;;;;;;;103810;1289;545377;-69
2024/03/22 16:25:37;;;;;;;12.50;6.50;;;;;;;;;;103725;1289;549092;-71
2024/03/22 16:29:07;;;;;;;15.10;6.60;;;;;;;;;;103779;1292;545688;-68
2024/03/22 16:32:46;;;;;;;11.80;5.90;;;;;;;;;;103796;1289;544996;-70
2024/03/22 16:36:22;;;;;;;13.80;6.10;;;;;;;;;;103774;1289;544938;-73
2024/03/22 16:39:55;;;;;;;10.80;5.30;;;;;;;;;;104018;1290;545676;-70
2024/03/22 16:43:38;;;;;;;11.30;6.20;;;;;;;;;;103715;1289;545421;-70
2024/03/22 16:47:14;;;;;;;15.20;8.10;;;;;;;;;;104006;1290;545108;-72
2024/03/22 16:50:51;;;;;;;13.40;7.50;;;;;;;;;;103761;1289;545927;-68
2024/03/22 16:54:29;;;;;;;19.20;10.50;;;;;;;;;;103907;1290;544864;-71
2024/03/22 16:58:06;;;;;;;15.40;8.10;;;;;;;;;;103873;1295;546267;-71
2024/03/22 17:02:04;;;;;;;17.30;7.60;;;;;;;;;;104712;1285;548132;-72
2024/03/22 17:05:21;;;;;;;17.90;9.20;;;;;;;;;;104032;1289;545496;-70
2024/03/22 17:09:01;;;;;;;19.60;9.20;;;;;;;;;;103814;1289;545225;-71
2024/03/22 17:12:36;;;;;;;16.80;8.70;;;;;;;;;;103878;1292;544812;-73
2024/03/22 17:16:14;;;;;;;18.80;9.50;;;;;;;;;;103772;1290;545316;-72
2024/03/22 17:19:47;;;;;;;20.70;10.60;;;;;;;;;;103740;1292;544746;-71
2024/03/22 17:23:29;;;;;;;18.40;10.60;;;;;;;;;;103898;1289;545807;-72
2024/03/22 17:27:12;;;;;;;16.40;8.90;;;;;;;;;;103777;1296;548235;-71
2024/03/22 17:30:47;;;;;;;13.80;7.50;;;;;;;;;;103902;1290;544718;-71
2024/03/22 17:34:21;;;;;;;14.60;7.20;;;;;;;;;;103749;1291;546661;-71
2024/03/22 17:37:59;;;;;;;14.10;7.00;;;;;;;;;;103992;1289;545279;-70
2024/03/22 17:41:36;;;;;;;15.50;7.80;;;;;;;;;;103820;1292;544903;-72
2024/03/22 17:45:14;;;;;;;15.20;8.20;;;;;;;;;;103750;1289;545006;-72
2024/03/22 17:48:53;;;;;;;24.70;16.90;;;;;;;;;;103664;1289;546789;-72
2024/03/22 17:52:29;;;;;;;32.20;20.70;;;;;;;;;;103756;1289;544800;-71
2024/03/22 17:56:09;;;;;;;22.50;13.80;;;;;;;;;;103843;1289;545160;-72
2024/03/22 17:59:43;;;;;;;25.50;16.10;;;;;;;;;;105901;1289;545253;-71
2024/03/22 18:03:17;;;;;;;24.50;15.20;;;;;;;;;;104757;1289;544709;-71
2024/03/22 18:06:54;;;;;;;24.00;14.70;;;;;;;;;;103949;1289;544850;-68
2024/03/22 18:10:37;;;;;;;20.40;12.10;;;;;;;;;;103953;1289;545562;-71
2024/03/22 18:14:11;;;;;;;20.70;11.30;;;;;;;;;;103777;1289;545755;-71
2024/03/22 18:17:50;;;;;;;16.40;10.30;;;;;;;;;;104031;1288;544765;-71
2024/03/22 18:21:28;;;;;;;18.10;11.10;;;;;;;;;;103745;1292;544856;-71
2024/03/22 18:25:06;;;;;;;19.70;13.00;;;;;;;;;;103931;1292;545636;-70
2024/03/22 18:28:46;;;;;;;18.50;11.80;;;;;;;;;;103676;1295;544979;-71
2024/03/22 18:32:21;;;;;;;19.30;11.40;;;;;;;;;;104285;1282;545656;-71
2024/03/22 18:35:58;;;;;;;21.00;11.30;;;;;;;;;;103720;1291;545849;-72
2024/03/22 18:39:36;;;;;;;18.60;11.70;;;;;;;;;;103549;1291;545315;-72
2024/03/22 18:43:09;;;;;;;18.20;10.00;;;;;;;;;;103957;1295;545780;-71
2024/03/22 18:46:51;;;;;;;15.90;9.30;;;;;;;;;;103824;1292;545394;-70
2024/03/22 18:50:28;;;;;;;17.00;9.00;;;;;;;;;;103820;1292;545898;-69
2024/03/22 18:54:06;;;;;;;17.30;9.10;;;;;;;;;;103663;1289;545914;-71
2024/03/22 18:57:43;;;;;;;15.60;8.40;;;;;;;;;;103676;1291;545004;-69
2024/03/22 19:01:20;;;;;;;15.30;8.70;;;;;;;;;;103688;1291;545091;-71
2024/03/22 19:05:01;;;;;;;17.20;9.40;;;;;;;;;;104102;1291;545212;-70
2024/03/22 19:08:38;;;;;;;16.70;9.50;;;;;;;;;;103408;1291;545040;-71
2024/03/22 19:12:13;;;;;;;18.20;9.80;;;;;;;;;;103724;1295;545400;-71
2024/03/22 19:15:54;;;;;;;20.50;12.00;;;;;;;;;;103584;1292;545012;-71
2024/03/22 19:19:28;;;;;;;22.10;13.60;;;;;;;;;;103740;1292;544979;-70
2024/03/22 19:23:05;;;;;;;37.50;22.40;;;;;;;;;;103626;1293;545015;-70
2024/03/22 19:26:42;;;;;;;24.80;14.00;;;;;;;;;;103679;1289;544923;-69
2024/03/22 19:30:21;;;;;;;23.40;13.20;;;;;;;;;;103777;1292;545450;-69
2024/03/22 19:33:58;;;;;;;20.60;11.50;;;;;;;;;;103496;1298;545260;-71
2024/03/22 19:37:35;;;;;;;19.20;11.70;;;;;;;;;;103647;1292;545006;-69
2024/03/22 19:41:13;;;;;;;20.70;12.00;;;;;;;;;;103809;1289;545743;-69
2024/03/22 19:44:50;;;;;;;20.10;11.50;;;;;;;;;;103805;1290;545651;-70
2024/03/22 19:48:28;;;;;;;18.10;11.00;;;;;;;;;;103565;1298;546718;-70
2024/03/22 19:52:08;;;;;;;20.20;12.20;;;;;;;;;;103556;1291;546120;-70
2024/03/22 19:55:43;;;;;;;19.00;11.60;;;;;;;;;;103741;1293;545722;-71
2024/03/22 19:59:16;;;;;;;17.90;10.70;;;;;;;;;;103922;1289;544773;-72
2024/03/22 20:03:00;;;;;;;20.80;10.80;;;;;;;;;;103743;1292;545639;-71
2024/03/22 20:06:35;;;;;;;17.60;9.80;;;;;;;;;;103461;1292;544846;-69
2024/03/22 20:10:13;;;;;;;18.10;10.40;;;;;;;;;;103442;1291;544952;-70
2024/03/22 20:13:50;;;;;;;18.90;10.40;;;;;;;;;;103752;1295;544625;-69
2024/03/22 20:17:28;;;;;;;19.80;11.40;;;;;;;;;;103523;1292;544931;-71
2024/03/22 20:21:05;;;;;;;18.60;11.20;;;;;;;;;;103552;1293;546057;-69
2024/03/22 20:24:43;;;;;;;20.40;11.60;;;;;;;;;;103643;1298;545539;-71
2024/03/22 20:28:20;;;;;;;21.30;11.70;;;;;;;;;;103443;1291;546086;-70
2024/03/22 20:31:58;;;;;;;22.20;12.90;;;;;;;;;;103464;1290;544912;-71
2024/03/22 20:35:35;;;;;;;20.90;13.10;;;;;;;;;;103539;1293;546583;-72
2024/03/22 20:39:14;;;;;;;23.90;14.50;;;;;;;;;;103734;1289;545034;-70
2024/03/22 20:42:50;;;;;;;24.20;15.10;;;;;;;;;;104270;1286;545003;-71
2024/03/22 20:46:27;;;;;;;23.40;13.70;;;;;;;;;;103601;1290;546311;-70